sensor_id;sensor_type;location;lat;lon;timestamp;temperature;humidity
29849;DHT22;16728;50.832;5.590;2023-09-08T00:03:08;21.00;99.90
29849;DHT22;16728;50.832;5.590;2023-09-08T00:06:54;21.10;99.90
29849;DHT22;16728;50.832;5.590;2023-09-08T00:09:56;20.90;99.90
29849;DHT22;16728;50.832;5.590;2023-09-08T00:12:58;20.80;99.90
29849;DHT22;16728;50.832;5.590;2023-09-08T00:16:00;20.70;99.90
29849;DHT22;16728;50.832;5.590;2023-09-08T00:19:02;20.80;99.90
29849;DHT22;16728;50.832;5.590;2023-09-08T00:22:25;20.90;99.90
29849;DHT22;16728;50.832;5.590;2023-09-08T00:26:01;20.80;99.90
29849;DHT22;16728;50.832;5.590;2023-09-08T00:29:03;20.80;99.90
29849;DHT22;16728;50.832;5.590;2023-09-08T00:32:05;20.70;99.90
29849;DHT22;16728;50.832;5.590;2023-09-08T00:35:11;20.60;99.90
29849;DHT22;16728;50.832;5.590;2023-09-08T00:38:13;20.60;99.90
29849;DHT22;16728;50.832;5.590;2023-09-08T00:41:18;20.60;99.90
29849;DHT22;16728;50.832;5.590;2023-09-08T00:44:20;20.40;99.90
29849;DHT22;16728;50.832;5.590;2023-09-08T00:47:22;20.50;99.90
29849;DHT22;16728;50.832;5.590;2023-09-08T00:50:24;20.50;99.90
29849;DHT22;16728;50.832;5.590;2023-09-08T00:53:26;20.40;99.90
29849;DHT22;16728;50.832;5.590;2023-09-08T00:56:30;20.40;99.90
29849;DHT22;16728;50.832;5.590;2023-09-08T00:59:33;20.50;99.90
29849;DHT22;16728;50.832;5.590;2023-09-08T01:02:39;20.40;99.90
29849;DHT22;16728;50.832;5.590;2023-09-08T01:05:44;20.40;99.90
29849;DHT22;16728;50.832;5.590;2023-09-08T01:08:48;20.40;99.90
29849;DHT22;16728;50.832;5.590;2023-09-08T01:11:51;20.40;99.90
29849;DHT22;16728;50.832;5.590;2023-09-08T01:15:03;20.20;99.90
29849;DHT22;16728;50.832;5.590;2023-09-08T01:18:06;20.10;99.90
29849;DHT22;16728;50.832;5.590;2023-09-08T01:25:12;20.00;99.90
29849;DHT22;16728;50.832;5.590;2023-09-08T01:28:15;20.00;99.90
29849;DHT22;16728;50.832;5.590;2023-09-08T01:31:18;20.00;99.90
29849;DHT22;16728;50.832;5.590;2023-09-08T01:34:20;19.90;99.90
29849;DHT22;16728;50.832;5.590;2023-09-08T01:37:23;19.90;99.90
29849;DHT22;16728;50.832;5.590;2023-09-08T01:40:25;19.90;99.90
29849;DHT22;16728;50.832;5.590;2023-09-08T01:43:27;19.90;99.90
29849;DHT22;16728;50.832;5.590;2023-09-08T01:46:29;19.90;99.90
29849;DHT22;16728;50.832;5.590;2023-09-08T01:49:31;19.90;99.90
29849;DHT22;16728;50.832;5.590;2023-09-08T01:52:34;19.90;99.90
29849;DHT22;16728;50.832;5.590;2023-09-08T01:55:36;19.80;99.90
29849;DHT22;16728;50.832;5.590;2023-09-08T01:58:38;19.80;99.90
29849;DHT22;16728;50.832;5.590;2023-09-08T02:02:01;19.70;99.90
29849;DHT22;16728;50.832;5.590;2023-09-08T02:05:06;19.70;99.90
29849;DHT22;16728;50.832;5.590;2023-09-08T02:08:08;19.70;99.90
29849;DHT22;16728;50.832;5.590;2023-09-08T02:11:10;19.80;99.90
29849;DHT22;16728;50.832;5.590;2023-09-08T02:14:12;19.70;99.90
29849;DHT22;16728;50.832;5.590;2023-09-08T02:17:14;19.80;99.90
29849;DHT22;16728;50.832;5.590;2023-09-08T02:20:16;19.80;99.90
29849;DHT22;16728;50.832;5.590;2023-09-08T02:23:18;19.80;99.90
29849;DHT22;16728;50.832;5.590;2023-09-08T02:26:20;19.70;99.90
29849;DHT22;16728;50.832;5.590;2023-09-08T02:29:22;19.70;99.90
29849;DHT22;16728;50.832;5.590;2023-09-08T02:32:24;19.60;99.90
29849;DHT22;16728;50.832;5.590;2023-09-08T02:35:26;19.60;99.90
29849;DHT22;16728;50.832;5.590;2023-09-08T02:38:28;19.60;99.90
29849;DHT22;16728;50.832;5.590;2023-09-08T02:41:30;19.70;99.90
29849;DHT22;16728;50.832;5.590;2023-09-08T02:44:32;19.70;99.90
29849;DHT22;16728;50.832;5.590;2023-09-08T02:47:34;19.70;99.90
29849;DHT22;16728;50.832;5.590;2023-09-08T02:50:36;19.60;99.90
29849;DHT22;16728;50.832;5.590;2023-09-08T02:53:38;19.60;99.90
29849;DHT22;16728;50.832;5.590;2023-09-08T02:56:41;19.60;99.90
29849;DHT22;16728;50.832;5.590;2023-09-08T02:59:49;19.80;99.90
29849;DHT22;16728;50.832;5.590;2023-09-08T03:02:51;19.70;99.90
29849;DHT22;16728;50.832;5.590;2023-09-08T03:05:56;19.70;99.90
29849;DHT22;16728;50.832;5.590;2023-09-08T03:09:02;19.60;99.90
29849;DHT22;16728;50.832;5.590;2023-09-08T03:12:04;19.70;99.90
29849;DHT22;16728;50.832;5.590;2023-09-08T03:15:06;19.60;99.90
29849;DHT22;16728;50.832;5.590;2023-09-08T03:18:09;19.50;99.90
29849;DHT22;16728;50.832;5.590;2023-09-08T03:21:14;19.40;99.90
29849;DHT22;16728;50.832;5.590;2023-09-08T03:24:16;19.40;99.90
29849;DHT22;16728;50.832;5.590;2023-09-08T03:27:18;19.30;99.90
29849;DHT22;16728;50.832;5.590;2023-09-08T03:30:20;19.30;99.90
29849;DHT22;16728;50.832;5.590;2023-09-08T03:33:22;19.40;99.90
29849;DHT22;16728;50.832;5.590;2023-09-08T03:36:24;19.40;99.90
29849;DHT22;16728;50.832;5.590;2023-09-08T03:39:26;19.30;99.90
29849;DHT22;16728;50.832;5.590;2023-09-08T03:42:28;19.30;99.90
29849;DHT22;16728;50.832;5.590;2023-09-08T03:45:30;19.30;99.90
29849;DHT22;16728;50.832;5.590;2023-09-08T03:48:32;19.30;99.90
29849;DHT22;16728;50.832;5.590;2023-09-08T03:51:34;19.20;99.90
29849;DHT22;16728;50.832;5.590;2023-09-08T03:54:36;19.20;99.90
29849;DHT22;16728;50.832;5.590;2023-09-08T03:57:39;19.20;99.90
29849;DHT22;16728;50.832;5.590;2023-09-08T04:00:41;19.20;99.90
29849;DHT22;16728;50.832;5.590;2023-09-08T04:03:43;19.10;99.90
29849;DHT22;16728;50.832;5.590;2023-09-08T04:06:45;19.20;99.90
29849;DHT22;16728;50.832;5.590;2023-09-08T04:09:47;19.20;99.90
29849;DHT22;16728;50.832;5.590;2023-09-08T04:12:49;19.20;99.90
29849;DHT22;16728;50.832;5.590;2023-09-08T04:15:54;19.20;99.90
29849;DHT22;16728;50.832;5.590;2023-09-08T04:18:56;19.10;99.90
29849;DHT22;16728;50.832;5.590;2023-09-08T04:21:58;19.10;99.90
29849;DHT22;16728;50.832;5.590;2023-09-08T04:25:01;19.10;99.90
29849;DHT22;16728;50.832;5.590;2023-09-08T04:28:03;18.90;99.90
29849;DHT22;16728;50.832;5.590;2023-09-08T04:31:06;18.90;99.90
29849;DHT22;16728;50.832;5.590;2023-09-08T04:34:08;18.90;99.90
29849;DHT22;16728;50.832;5.590;2023-09-08T04:37:10;18.90;99.90
29849;DHT22;16728;50.832;5.590;2023-09-08T04:40:13;19.00;99.90
29849;DHT22;16728;50.832;5.590;2023-09-08T04:43:15;19.00;99.90
29849;DHT22;16728;50.832;5.590;2023-09-08T04:46:17;18.90;99.90
29849;DHT22;16728;50.832;5.590;2023-09-08T04:49:19;19.00;99.90
29849;DHT22;16728;50.832;5.590;2023-09-08T04:52:21;19.00;99.90
29849;DHT22;16728;50.832;5.590;2023-09-08T04:55:24;19.00;99.90
29849;DHT22;16728;50.832;5.590;2023-09-08T04:58:26;18.90;99.90
29849;DHT22;16728;50.832;5.590;2023-09-08T05:01:28;18.80;99.90
29849;DHT22;16728;50.832;5.590;2023-09-08T05:04:34;18.80;99.90
29849;DHT22;16728;50.832;5.590;2023-09-08T05:07:36;18.80;99.90
29849;DHT22;16728;50.832;5.590;2023-09-08T05:10:38;19.00;99.90
29849;DHT22;16728;50.832;5.590;2023-09-08T05:13:40;18.90;99.90
29849;DHT22;16728;50.832;5.590;2023-09-08T05:16:42;18.90;99.90
29849;DHT22;16728;50.832;5.590;2023-09-08T05:19:51;18.70;99.90
29849;DHT22;16728;50.832;5.590;2023-09-08T05:22:53;18.70;99.90
29849;DHT22;16728;50.832;5.590;2023-09-08T05:25:55;18.80;99.90
29849;DHT22;16728;50.832;5.590;2023-09-08T05:28:57;18.70;99.90
29849;DHT22;16728;50.832;5.590;2023-09-08T05:32:02;18.70;99.90
29849;DHT22;16728;50.832;5.590;2023-09-08T05:35:05;18.80;99.90
29849;DHT22;16728;50.832;5.590;2023-09-08T05:38:07;18.90;99.90
29849;DHT22;16728;50.832;5.590;2023-09-08T05:41:08;18.90;99.90
29849;DHT22;16728;50.832;5.590;2023-09-08T05:44:10;18.90;99.90
29849;DHT22;16728;50.832;5.590;2023-09-08T05:47:12;18.90;99.90
29849;DHT22;16728;50.832;5.590;2023-09-08T05:50:15;19.00;99.90
29849;DHT22;16728;50.832;5.590;2023-09-08T05:53:17;18.80;99.90
29849;DHT22;16728;50.832;5.590;2023-09-08T05:56:19;18.90;99.90
29849;DHT22;16728;50.832;5.590;2023-09-08T05:59:22;18.90;99.90
29849;DHT22;16728;50.832;5.590;2023-09-08T06:02:25;18.90;99.90
29849;DHT22;16728;50.832;5.590;2023-09-08T06:05:27;18.90;99.90
29849;DHT22;16728;50.832;5.590;2023-09-08T06:08:29;18.90;99.90
29849;DHT22;16728;50.832;5.590;2023-09-08T06:11:31;19.00;99.90
29849;DHT22;16728;50.832;5.590;2023-09-08T06:14:33;18.90;99.90
29849;DHT22;16728;50.832;5.590;2023-09-08T06:17:34;19.00;99.90
29849;DHT22;16728;50.832;5.590;2023-09-08T06:20:36;19.10;99.90
29849;DHT22;16728;50.832;5.590;2023-09-08T06:23:39;19.20;99.90
29849;DHT22;16728;50.832;5.590;2023-09-08T06:26:41;19.20;99.90
29849;DHT22;16728;50.832;5.590;2023-09-08T06:29:44;19.20;99.90
29849;DHT22;16728;50.832;5.590;2023-09-08T06:32:46;19.20;99.90
29849;DHT22;16728;50.832;5.590;2023-09-08T06:35:48;19.30;99.90
29849;DHT22;16728;50.832;5.590;2023-09-08T06:38:50;19.40;99.90
29849;DHT22;16728;50.832;5.590;2023-09-08T06:41:52;19.50;99.90
29849;DHT22;16728;50.832;5.590;2023-09-08T06:44:55;19.60;99.90
29849;DHT22;16728;50.832;5.590;2023-09-08T06:47:57;19.50;99.90
29849;DHT22;16728;50.832;5.590;2023-09-08T06:51:00;19.70;99.90
29849;DHT22;16728;50.832;5.590;2023-09-08T06:54:02;19.70;99.90
29849;DHT22;16728;50.832;5.590;2023-09-08T06:57:06;19.80;99.90
29849;DHT22;16728;50.832;5.590;2023-09-08T07:00:09;20.00;99.90
29849;DHT22;16728;50.832;5.590;2023-09-08T07:03:13;19.90;99.90
29849;DHT22;16728;50.832;5.590;2023-09-08T07:06:16;20.00;99.90
29849;DHT22;16728;50.832;5.590;2023-09-08T07:09:18;20.00;99.90
29849;DHT22;16728;50.832;5.590;2023-09-08T07:12:20;20.10;99.90
29849;DHT22;16728;50.832;5.590;2023-09-08T07:15:22;20.30;99.90
29849;DHT22;16728;50.832;5.590;2023-09-08T07:18:24;20.40;99.90
29849;DHT22;16728;50.832;5.590;2023-09-08T07:21:26;20.40;99.90
29849;DHT22;16728;50.832;5.590;2023-09-08T07:24:28;20.50;99.90
29849;DHT22;16728;50.832;5.590;2023-09-08T07:27:31;20.60;99.90
29849;DHT22;16728;50.832;5.590;2023-09-08T07:30:33;20.80;99.90
29849;DHT22;16728;50.832;5.590;2023-09-08T07:33:35;21.00;99.90
29849;DHT22;16728;50.832;5.590;2023-09-08T07:36:37;21.20;99.90
29849;DHT22;16728;50.832;5.590;2023-09-08T07:39:39;21.40;99.90
29849;DHT22;16728;50.832;5.590;2023-09-08T07:42:41;21.50;99.90
29849;DHT22;16728;50.832;5.590;2023-09-08T07:45:43;21.60;99.90
29849;DHT22;16728;50.832;5.590;2023-09-08T07:48:45;21.80;99.90
29849;DHT22;16728;50.832;5.590;2023-09-08T07:51:47;21.90;99.90
29849;DHT22;16728;50.832;5.590;2023-09-08T07:54:49;22.10;99.90
29849;DHT22;16728;50.832;5.590;2023-09-08T07:57:51;22.30;99.90
29849;DHT22;16728;50.832;5.590;2023-09-08T08:00:53;22.30;99.90
29849;DHT22;16728;50.832;5.590;2023-09-08T08:03:56;22.40;99.90
29849;DHT22;16728;50.832;5.590;2023-09-08T08:06:58;22.60;99.90
29849;DHT22;16728;50.832;5.590;2023-09-08T08:10:00;22.70;99.90
29849;DHT22;16728;50.832;5.590;2023-09-08T08:13:02;22.90;99.90
29849;DHT22;16728;50.832;5.590;2023-09-08T08:16:04;23.00;99.90
29849;DHT22;16728;50.832;5.590;2023-09-08T08:19:06;23.20;99.90
29849;DHT22;16728;50.832;5.590;2023-09-08T08:22:08;23.30;99.90
29849;DHT22;16728;50.832;5.590;2023-09-08T08:25:11;23.40;99.90
29849;DHT22;16728;50.832;5.590;2023-09-08T08:28:14;23.60;99.90
29849;DHT22;16728;50.832;5.590;2023-09-08T08:31:16;23.60;99.90
29849;DHT22;16728;50.832;5.590;2023-09-08T08:34:18;23.70;99.90
29849;DHT22;16728;50.832;5.590;2023-09-08T08:37:20;23.80;99.90
29849;DHT22;16728;50.832;5.590;2023-09-08T08:40:22;24.00;99.90
29849;DHT22;16728;50.832;5.590;2023-09-08T08:43:28;24.10;99.90
29849;DHT22;16728;50.832;5.590;2023-09-08T08:46:31;24.30;99.90
29849;DHT22;16728;50.832;5.590;2023-09-08T08:49:36;24.40;99.90
29849;DHT22;16728;50.832;5.590;2023-09-08T08:52:38;24.60;99.90
29849;DHT22;16728;50.832;5.590;2023-09-08T08:55:42;24.70;99.90
29849;DHT22;16728;50.832;5.590;2023-09-08T08:58:45;24.70;99.90
29849;DHT22;16728;50.832;5.590;2023-09-08T09:01:47;24.80;99.90
29849;DHT22;16728;50.832;5.590;2023-09-08T09:04:51;24.80;99.90
29849;DHT22;16728;50.832;5.590;2023-09-08T09:07:54;24.90;99.90
29849;DHT22;16728;50.832;5.590;2023-09-08T09:10:59;25.00;99.90
29849;DHT22;16728;50.832;5.590;2023-09-08T09:14:01;25.20;99.90
29849;DHT22;16728;50.832;5.590;2023-09-08T09:17:04;25.20;99.90
29849;DHT22;16728;50.832;5.590;2023-09-08T09:20:14;25.30;99.90
29849;DHT22;16728;50.832;5.590;2023-09-08T09:23:30;25.40;99.90
29849;DHT22;16728;50.832;5.590;2023-09-08T09:26:32;25.50;99.90
29849;DHT22;16728;50.832;5.590;2023-09-08T09:29:44;25.50;99.90
29849;DHT22;16728;50.832;5.590;2023-09-08T09:32:47;25.60;99.90
29849;DHT22;16728;50.832;5.590;2023-09-08T09:35:53;25.60;99.90
29849;DHT22;16728;50.832;5.590;2023-09-08T09:38:59;25.70;99.90
29849;DHT22;16728;50.832;5.590;2023-09-08T09:42:02;25.80;99.90
29849;DHT22;16728;50.832;5.590;2023-09-08T09:45:06;25.90;99.90
29849;DHT22;16728;50.832;5.590;2023-09-08T09:48:10;25.90;99.90
29849;DHT22;16728;50.832;5.590;2023-09-08T09:51:19;26.00;99.90
29849;DHT22;16728;50.832;5.590;2023-09-08T09:54:21;26.10;99.90
29849;DHT22;16728;50.832;5.590;2023-09-08T09:57:24;26.10;99.90
29849;DHT22;16728;50.832;5.590;2023-09-08T10:00:27;26.20;99.90
29849;DHT22;16728;50.832;5.590;2023-09-08T10:03:30;26.40;99.90
29849;DHT22;16728;50.832;5.590;2023-09-08T10:06:36;26.50;99.90
29849;DHT22;16728;50.832;5.590;2023-09-08T10:09:38;26.50;99.90
29849;DHT22;16728;50.832;5.590;2023-09-08T10:12:43;26.40;99.90
29849;DHT22;16728;50.832;5.590;2023-09-08T10:15:48;26.40;99.90
29849;DHT22;16728;50.832;5.590;2023-09-08T10:18:52;26.60;99.90
29849;DHT22;16728;50.832;5.590;2023-09-08T10:21:58;26.70;99.90
29849;DHT22;16728;50.832;5.590;2023-09-08T10:25:04;26.70;99.90
29849;DHT22;16728;50.832;5.590;2023-09-08T10:28:07;26.80;99.90
29849;DHT22;16728;50.832;5.590;2023-09-08T10:31:10;26.90;99.90
29849;DHT22;16728;50.832;5.590;2023-09-08T10:34:17;27.00;99.90
29849;DHT22;16728;50.832;5.590;2023-09-08T10:37:21;27.10;99.90
29849;DHT22;16728;50.832;5.590;2023-09-08T10:40:24;27.00;99.90
29849;DHT22;16728;50.832;5.590;2023-09-08T10:43:29;27.00;99.90
29849;DHT22;16728;50.832;5.590;2023-09-08T10:46:31;27.10;99.90
29849;DHT22;16728;50.832;5.590;2023-09-08T10:49:36;27.20;99.90
29849;DHT22;16728;50.832;5.590;2023-09-08T10:52:41;27.20;99.90
29849;DHT22;16728;50.832;5.590;2023-09-08T10:55:48;27.30;99.90
29849;DHT22;16728;50.832;5.590;2023-09-08T10:59:10;27.30;99.90
29849;DHT22;16728;50.832;5.590;2023-09-08T11:02:40;27.40;99.90
29849;DHT22;16728;50.832;5.590;2023-09-08T11:05:46;27.40;99.90
29849;DHT22;16728;50.832;5.590;2023-09-08T11:08:49;27.40;99.90
29849;DHT22;16728;50.832;5.590;2023-09-08T11:11:55;27.50;99.90
29849;DHT22;16728;50.832;5.590;2023-09-08T11:15:05;27.40;99.90
29849;DHT22;16728;50.832;5.590;2023-09-08T11:18:07;27.50;99.90
29849;DHT22;16728;50.832;5.590;2023-09-08T11:21:10;27.70;99.90
29849;DHT22;16728;50.832;5.590;2023-09-08T11:24:13;27.80;99.90
29849;DHT22;16728;50.832;5.590;2023-09-08T11:27:17;28.00;99.90
29849;DHT22;16728;50.832;5.590;2023-09-08T11:30:19;28.00;99.90
29849;DHT22;16728;50.832;5.590;2023-09-08T11:33:23;28.00;99.90
29849;DHT22;16728;50.832;5.590;2023-09-08T11:36:29;27.90;99.90
29849;DHT22;16728;50.832;5.590;2023-09-08T11:39:36;27.90;99.90
29849;DHT22;16728;50.832;5.590;2023-09-08T11:42:39;28.00;99.90
29849;DHT22;16728;50.832;5.590;2023-09-08T11:45:46;28.00;99.90
29849;DHT22;16728;50.832;5.590;2023-09-08T11:48:49;28.00;99.90
29849;DHT22;16728;50.832;5.590;2023-09-08T11:51:51;28.20;99.90
29849;DHT22;16728;50.832;5.590;2023-09-08T11:54:53;28.20;99.90
29849;DHT22;16728;50.832;5.590;2023-09-08T11:58:08;28.30;99.90
29849;DHT22;16728;50.832;5.590;2023-09-08T12:01:10;28.40;99.90
29849;DHT22;16728;50.832;5.590;2023-09-08T12:04:19;28.40;99.90
29849;DHT22;16728;50.832;5.590;2023-09-08T12:07:24;28.50;99.90
29849;DHT22;16728;50.832;5.590;2023-09-08T12:10:25;28.50;99.90
29849;DHT22;16728;50.832;5.590;2023-09-08T12:13:27;28.60;99.90
29849;DHT22;16728;50.832;5.590;2023-09-08T12:16:29;28.50;99.90
29849;DHT22;16728;50.832;5.590;2023-09-08T12:19:32;28.60;99.90
29849;DHT22;16728;50.832;5.590;2023-09-08T12:22:34;28.70;99.90
29849;DHT22;16728;50.832;5.590;2023-09-08T12:25:48;28.70;99.90
29849;DHT22;16728;50.832;5.590;2023-09-08T12:28:53;28.50;99.90
29849;DHT22;16728;50.832;5.590;2023-09-08T12:31:55;28.40;99.90
29849;DHT22;16728;50.832;5.590;2023-09-08T12:34:58;28.50;99.90
29849;DHT22;16728;50.832;5.590;2023-09-08T12:38:04;28.50;99.90
29849;DHT22;16728;50.832;5.590;2023-09-08T12:41:07;28.60;99.90
29849;DHT22;16728;50.832;5.590;2023-09-08T12:44:09;28.80;99.90
29849;DHT22;16728;50.832;5.590;2023-09-08T12:47:11;28.90;99.90
29849;DHT22;16728;50.832;5.590;2023-09-08T12:50:16;29.00;99.90
29849;DHT22;16728;50.832;5.590;2023-09-08T12:53:18;28.90;99.90
29849;DHT22;16728;50.832;5.590;2023-09-08T12:56:25;28.90;99.90
29849;DHT22;16728;50.832;5.590;2023-09-08T12:59:27;29.00;99.90
29849;DHT22;16728;50.832;5.590;2023-09-08T13:02:29;28.80;99.90
29849;DHT22;16728;50.832;5.590;2023-09-08T13:05:31;28.80;99.90
29849;DHT22;16728;50.832;5.590;2023-09-08T13:08:35;28.70;99.90
29849;DHT22;16728;50.832;5.590;2023-09-08T13:11:37;28.80;99.90
29849;DHT22;16728;50.832;5.590;2023-09-08T13:14:40;28.70;99.90
29849;DHT22;16728;50.832;5.590;2023-09-08T13:17:42;28.70;99.90
29849;DHT22;16728;50.832;5.590;2023-09-08T13:20:44;28.80;99.90
29849;DHT22;16728;50.832;5.590;2023-09-08T13:23:46;28.80;99.90
29849;DHT22;16728;50.832;5.590;2023-09-08T13:26:48;28.90;99.90
29849;DHT22;16728;50.832;5.590;2023-09-08T13:29:53;28.90;99.90
29849;DHT22;16728;50.832;5.590;2023-09-08T13:32:55;29.00;99.90
29849;DHT22;16728;50.832;5.590;2023-09-08T13:35:57;29.00;99.90
29849;DHT22;16728;50.832;5.590;2023-09-08T13:38:59;29.00;99.90
29849;DHT22;16728;50.832;5.590;2023-09-08T13:42:02;28.80;99.90
29849;DHT22;16728;50.832;5.590;2023-09-08T13:45:05;28.80;99.90
29849;DHT22;16728;50.832;5.590;2023-09-08T13:48:08;28.80;99.90
29849;DHT22;16728;50.832;5.590;2023-09-08T13:51:10;28.80;99.90
29849;DHT22;16728;50.832;5.590;2023-09-08T13:54:15;28.80;99.90
29849;DHT22;16728;50.832;5.590;2023-09-08T13:57:19;28.80;99.90
29849;DHT22;16728;50.832;5.590;2023-09-08T14:00:24;28.80;99.90
29849;DHT22;16728;50.832;5.590;2023-09-08T14:03:28;28.90;99.90
29849;DHT22;16728;50.832;5.590;2023-09-08T14:06:32;28.90;99.90
29849;DHT22;16728;50.832;5.590;2023-09-08T14:09:37;28.90;99.90
29849;DHT22;16728;50.832;5.590;2023-09-08T14:12:54;28.90;99.90
29849;DHT22;16728;50.832;5.590;2023-09-08T14:15:56;29.00;99.90
29849;DHT22;16728;50.832;5.590;2023-09-08T14:19:00;28.90;99.90
29849;DHT22;16728;50.832;5.590;2023-09-08T14:22:02;28.90;99.90
29849;DHT22;16728;50.832;5.590;2023-09-08T14:25:05;28.90;99.90
29849;DHT22;16728;50.832;5.590;2023-09-08T14:28:07;28.90;99.90
29849;DHT22;16728;50.832;5.590;2023-09-08T14:31:09;28.80;99.90
29849;DHT22;16728;50.832;5.590;2023-09-08T14:34:11;28.80;99.90
29849;DHT22;16728;50.832;5.590;2023-09-08T14:37:13;28.70;99.90
29849;DHT22;16728;50.832;5.590;2023-09-08T14:40:15;28.60;99.90
29849;DHT22;16728;50.832;5.590;2023-09-08T14:43:17;28.70;99.90
29849;DHT22;16728;50.832;5.590;2023-09-08T14:46:19;28.70;99.90
29849;DHT22;16728;50.832;5.590;2023-09-08T14:49:21;28.70;99.90
29849;DHT22;16728;50.832;5.590;2023-09-08T14:52:23;28.70;99.90
29849;DHT22;16728;50.832;5.590;2023-09-08T14:55:26;28.70;99.90
29849;DHT22;16728;50.832;5.590;2023-09-08T14:58:28;28.70;99.90
29849;DHT22;16728;50.832;5.590;2023-09-08T15:01:35;28.60;99.90
29849;DHT22;16728;50.832;5.590;2023-09-08T15:04:38;28.60;99.90
29849;DHT22;16728;50.832;5.590;2023-09-08T15:07:40;28.60;99.90
29849;DHT22;16728;50.832;5.590;2023-09-08T15:10:42;28.60;99.90
29849;DHT22;16728;50.832;5.590;2023-09-08T15:13:43;28.60;99.90
29849;DHT22;16728;50.832;5.590;2023-09-08T15:16:45;28.60;99.90
29849;DHT22;16728;50.832;5.590;2023-09-08T15:19:48;28.60;99.90
29849;DHT22;16728;50.832;5.590;2023-09-08T15:22:49;28.60;99.90
29849;DHT22;16728;50.832;5.590;2023-09-08T15:25:56;28.60;99.90
29849;DHT22;16728;50.832;5.590;2023-09-08T15:28:59;28.60;99.90
29849;DHT22;16728;50.832;5.590;2023-09-08T15:32:01;28.60;99.90
29849;DHT22;16728;50.832;5.590;2023-09-08T15:35:03;28.60;99.90
29849;DHT22;16728;50.832;5.590;2023-09-08T15:38:05;28.60;99.90
29849;DHT22;16728;50.832;5.590;2023-09-08T15:44:10;28.60;99.90
29849;DHT22;16728;50.832;5.590;2023-09-08T15:47:12;28.50;99.90
29849;DHT22;16728;50.832;5.590;2023-09-08T15:50:14;28.50;99.90
29849;DHT22;16728;50.832;5.590;2023-09-08T15:53:16;28.50;99.90
29849;DHT22;16728;50.832;5.590;2023-09-08T15:56:18;28.50;99.90
29849;DHT22;16728;50.832;5.590;2023-09-08T15:59:20;28.50;99.90
29849;DHT22;16728;50.832;5.590;2023-09-08T16:02:23;28.60;99.90
29849;DHT22;16728;50.832;5.590;2023-09-08T16:05:25;28.60;99.90
29849;DHT22;16728;50.832;5.590;2023-09-08T16:08:28;28.50;99.90
29849;DHT22;16728;50.832;5.590;2023-09-08T16:11:30;28.50;99.90
29849;DHT22;16728;50.832;5.590;2023-09-08T16:14:31;28.50;99.90
29849;DHT22;16728;50.832;5.590;2023-09-08T16:17:33;28.50;99.90
29849;DHT22;16728;50.832;5.590;2023-09-08T16:20:36;28.40;99.90
29849;DHT22;16728;50.832;5.590;2023-09-08T16:23:39;28.40;99.90
29849;DHT22;16728;50.832;5.590;2023-09-08T16:26:41;28.40;99.90
29849;DHT22;16728;50.832;5.590;2023-09-08T16:29:44;28.40;99.90
29849;DHT22;16728;50.832;5.590;2023-09-08T16:32:47;28.30;99.90
29849;DHT22;16728;50.832;5.590;2023-09-08T16:35:48;28.30;99.90
29849;DHT22;16728;50.832;5.590;2023-09-08T16:38:50;28.30;99.90
29849;DHT22;16728;50.832;5.590;2023-09-08T16:41:52;28.20;99.90
29849;DHT22;16728;50.832;5.590;2023-09-08T16:44:54;28.20;99.90
29849;DHT22;16728;50.832;5.590;2023-09-08T16:47:56;28.20;99.90
29849;DHT22;16728;50.832;5.590;2023-09-08T16:50:58;28.20;99.90
29849;DHT22;16728;50.832;5.590;2023-09-08T16:54:00;28.20;99.90
29849;DHT22;16728;50.832;5.590;2023-09-08T16:57:03;28.10;99.90
29849;DHT22;16728;50.832;5.590;2023-09-08T17:00:07;28.10;99.90
29849;DHT22;16728;50.832;5.590;2023-09-08T17:03:09;28.10;99.90
29849;DHT22;16728;50.832;5.590;2023-09-08T17:06:12;28.00;99.90
29849;DHT22;16728;50.832;5.590;2023-09-08T17:09:14;28.00;99.90
29849;DHT22;16728;50.832;5.590;2023-09-08T17:12:16;27.90;99.90
29849;DHT22;16728;50.832;5.590;2023-09-08T17:15:18;27.90;99.90
29849;DHT22;16728;50.832;5.590;2023-09-08T17:18:20;27.80;99.90
29849;DHT22;16728;50.832;5.590;2023-09-08T17:21:25;27.70;99.90
29849;DHT22;16728;50.832;5.590;2023-09-08T17:24:27;27.60;99.90
29849;DHT22;16728;50.832;5.590;2023-09-08T17:27:29;27.50;99.90
29849;DHT22;16728;50.832;5.590;2023-09-08T17:30:32;27.30;99.90
29849;DHT22;16728;50.832;5.590;2023-09-08T17:33:34;27.20;99.90
29849;DHT22;16728;50.832;5.590;2023-09-08T17:36:37;27.20;99.90
29849;DHT22;16728;50.832;5.590;2023-09-08T17:39:39;27.20;99.90
29849;DHT22;16728;50.832;5.590;2023-09-08T17:42:40;27.20;99.90
29849;DHT22;16728;50.832;5.590;2023-09-08T17:45:44;27.10;99.90
29849;DHT22;16728;50.832;5.590;2023-09-08T17:48:47;27.10;99.90
29849;DHT22;16728;50.832;5.590;2023-09-08T17:51:49;27.00;99.90
29849;DHT22;16728;50.832;5.590;2023-09-08T17:54:51;26.90;99.90
29849;DHT22;16728;50.832;5.590;2023-09-08T17:57:54;26.80;99.90
29849;DHT22;16728;50.832;5.590;2023-09-08T18:00:57;26.70;99.90
29849;DHT22;16728;50.832;5.590;2023-09-08T18:03:59;26.70;99.90
29849;DHT22;16728;50.832;5.590;2023-09-08T18:07:01;26.60;99.90
29849;DHT22;16728;50.832;5.590;2023-09-08T18:10:06;26.60;99.90
29849;DHT22;16728;50.832;5.590;2023-09-08T18:13:09;26.50;99.90
29849;DHT22;16728;50.832;5.590;2023-09-08T18:16:11;26.50;99.90
29849;DHT22;16728;50.832;5.590;2023-09-08T18:19:14;26.30;99.90
29849;DHT22;16728;50.832;5.590;2023-09-08T18:22:16;26.20;99.90
29849;DHT22;16728;50.832;5.590;2023-09-08T18:25:18;26.10;99.90
29849;DHT22;16728;50.832;5.590;2023-09-08T18:28:33;25.90;99.90
29849;DHT22;16728;50.832;5.590;2023-09-08T18:31:35;25.80;99.90
29849;DHT22;16728;50.832;5.590;2023-09-08T18:34:40;25.70;99.90
29849;DHT22;16728;50.832;5.590;2023-09-08T18:38:05;25.80;99.90
29849;DHT22;16728;50.832;5.590;2023-09-08T18:44:12;25.70;99.90
29849;DHT22;16728;50.832;5.590;2023-09-08T18:47:14;25.60;99.90
29849;DHT22;16728;50.832;5.590;2023-09-08T18:50:16;25.50;99.90
29849;DHT22;16728;50.832;5.590;2023-09-08T18:53:33;25.50;99.90
29849;DHT22;16728;50.832;5.590;2023-09-08T18:56:36;25.40;99.90
29849;DHT22;16728;50.832;5.590;2023-09-08T18:59:38;25.30;99.90
29849;DHT22;16728;50.832;5.590;2023-09-08T19:02:40;25.20;99.90
29849;DHT22;16728;50.832;5.590;2023-09-08T19:05:43;25.10;99.90
29849;DHT22;16728;50.832;5.590;2023-09-08T19:08:46;25.10;99.90
29849;DHT22;16728;50.832;5.590;2023-09-08T19:11:48;25.00;99.90
29849;DHT22;16728;50.832;5.590;2023-09-08T19:15:09;24.90;99.90
29849;DHT22;16728;50.832;5.590;2023-09-08T19:18:36;24.90;99.90
29849;DHT22;16728;50.832;5.590;2023-09-08T19:21:41;24.80;99.90
29849;DHT22;16728;50.832;5.590;2023-09-08T19:24:43;24.80;99.90
29849;DHT22;16728;50.832;5.590;2023-09-08T19:27:46;24.70;99.90
29849;DHT22;16728;50.832;5.590;2023-09-08T19:30:48;24.70;99.90